Time;durP1;ratioP1;P1;durP2;ratioP2;P2;SDS_P1;SDS_P2;PMS_P1;PMS_P2;Temp;Humidity;BMP_temperature;BMP_pressure;BME280_temperature;BME280_humidity;BME280_pressure;Samples;Min_cycle;Max_cycle;Signal;HPM_P1;HPM_P2
2021/10/13 00:00:14;;;;;;;48.55;28.95;;;;;;;4.51;75.99;96788.58;1771720;78;27380;-85
2021/10/13 00:02:43;;;;;;;59.08;31.07;;;;;;;4.53;75.95;96779.88;1796613;78;25873;-86
2021/10/13 00:05:10;;;;;;;57.43;31.68;;;;;;;4.55;76.00;96779.18;1774902;78;26286;-85
2021/10/13 00:07:37;;;;;;;56.77;32.05;;;;;;;4.57;76.03;96785.17;1796714;79;26104;-86
2021/10/13 00:10:06;;;;;;;58.92;33.65;;;;;;;4.59;76.02;96779.61;1797081;78;25753;-85
2021/10/13 00:12:34;;;;;;;60.50;32.70;;;;;;;4.61;76.08;96780.25;1796740;78;27468;-85
2021/10/13 00:15:08;;;;;;;62.48;32.63;;;;;;;4.62;76.11;96782.73;1796587;78;25804;-85
2021/10/13 00:17:35;;;;;;;56.83;32.78;;;;;;;4.64;76.06;96780.71;1776136;78;25853;-84
2021/10/13 00:20:06;;;;;;;51.60;32.03;;;;;;;4.65;76.19;96781.03;1796370;78;26626;-85
2021/10/13 00:22:32;;;;;;;54.67;32.05;;;;;;;4.67;76.19;96783.02;1796314;78;25785;-85
2021/10/13 00:24:59;;;;;;;52.13;30.60;;;;;;;4.67;76.18;96783.02;1796750;78;28226;-84
2021/10/13 00:27:26;;;;;;;57.15;31.68;;;;;;;4.69;76.32;96778.31;1778972;79;25816;-84
2021/10/13 00:29:55;;;;;;;56.68;33.15;;;;;;;4.71;76.34;96777.58;1767263;78;25760;-85
2021/10/13 00:32:22;;;;;;;55.48;32.35;;;;;;;4.73;76.35;96777.40;1788548;78;26086;-85
2021/10/13 00:34:48;;;;;;;52.35;30.12;;;;;;;4.75;76.45;96787.91;1779646;78;26494;-85
2021/10/13 00:37:15;;;;;;;49.38;29.55;;;;;;;4.73;76.51;96788.09;1762126;79;27551;-86
2021/10/13 00:39:42;;;;;;;47.78;29.82;;;;;;;4.74;76.55;96784.91;1771175;79;25701;-85
2021/10/13 00:42:08;;;;;;;54.88;31.60;;;;;;;4.77;76.48;96781.36;1768013;80;26629;-86
2021/10/13 00:44:35;;;;;;;52.25;29.42;;;;;;;4.80;76.49;96784.16;1770906;79;25733;-86
2021/10/13 00:47:01;;;;;;;54.88;29.45;;;;;;;4.82;76.50;96780.80;1773677;80;25261;-86
2021/10/13 00:49:28;;;;;;;52.43;30.48;;;;;;;4.85;76.61;96785.74;1766010;80;28177;-85
2021/10/13 00:51:55;;;;;;;55.78;30.75;;;;;;;4.89;76.57;96783.84;1776456;79;26683;-84
2021/10/13 00:54:23;;;;;;;60.65;31.82;;;;;;;4.93;76.65;96786.98;1780741;79;25821;-85
2021/10/13 00:56:50;;;;;;;55.00;30.60;;;;;;;4.94;76.61;96783.28;1781174;80;25911;-84
2021/10/13 00:59:17;;;;;;;52.03;29.40;;;;;;;4.95;76.71;96787.62;1780484;79;25788;-84
2021/10/13 01:02:03;;;;;;;51.68;30.70;;;;;;;4.93;76.73;96780.29;1781146;79;27550;-85
2021/10/13 01:04:56;;;;;;;49.65;29.92;;;;;;;4.96;76.82;96789.25;1780688;79;25687;-86
2021/10/13 01:07:26;;;;;;;;;;;;;;;5.01;76.90;96790.85;1773204;79;25718;-84
2021/10/13 01:10:12;;;;;;;54.60;29.72;;;;;;;5.03;77.07;96794.17;1762773;79;25686;-84
2021/10/13 01:13:02;;;;;;;49.20;28.20;;;;;;;5.01;77.18;96793.52;1770008;79;25355;-85
2021/10/13 01:16:04;;;;;;;48.92;30.88;;;;;;;4.97;77.26;96794.91;1779276;80;28334;-85
2021/10/13 01:18:45;;;;;;;51.63;30.17;;;;;;;4.94;77.41;96795.32;1764779;79;25759;-85
2021/10/13 01:21:35;;;;;;;51.23;32.03;;;;;;;4.93;77.40;96803.85;1779603;79;25647;-85
2021/10/13 01:24:33;;;;;;;53.98;31.65;;;;;;;4.92;77.44;96805.38;1779806;79;26366;-83
2021/10/13 01:27:27;;;;;;;72.32;37.98;;;;;;;4.94;77.58;96812.70;1764659;79;26507;-85
2021/10/13 01:29:57;;;;;;;48.73;28.10;;;;;;;4.98;77.58;96816.63;1690669;84;28076;-84
2021/10/13 01:32:26;;;;;;;43.68;24.60;;;;;;;4.95;77.51;96818.38;1690432;84;25826;-85
2021/10/13 01:34:58;;;;;;;37.53;22.37;;;;;;;4.94;77.60;96820.22;1690943;83;25817;-85
2021/10/13 01:37:33;;;;;;;31.50;19.97;;;;;;;4.96;77.66;96818.66;1690370;83;26434;-86
2021/10/13 01:40:00;;;;;;;31.57;21.33;;;;;;;4.96;77.67;96829.36;1689737;83;26253;-85
2021/10/13 01:42:30;;;;;;;42.55;23.77;;;;;;;4.97;77.78;96827.84;1690499;83;27486;-85
2021/10/13 01:44:59;;;;;;;25.77;15.58;;;;;;;4.99;77.89;96821.80;1689215;83;25846;-85
2021/10/13 01:47:27;;;;;;;20.40;11.95;;;;;;;5.00;77.96;96828.80;1687732;83;25780;-85
2021/10/13 01:49:57;;;;;;;15.28;10.23;;;;;;;5.01;78.03;96839.00;1690295;83;26641;-85
2021/10/13 01:52:26;;;;;;;15.58;9.33;;;;;;;5.06;78.06;96829.91;1689822;84;25875;-86
2021/10/13 01:55:01;;;;;;;14.93;10.18;;;;;;;5.08;78.09;96821.98;1689993;83;27045;-87
2021/10/13 01:57:28;;;;;;;19.50;10.90;;;;;;;5.09;78.13;96818.80;1688684;83;26401;-86
2021/10/13 01:59:57;;;;;;;18.45;11.28;;;;;;;5.11;78.15;96823.45;1690302;83;25770;-86
2021/10/13 02:02:32;;;;;;;21.12;13.08;;;;;;;5.12;78.32;96824.28;1690389;84;26238;-86
2021/10/13 02:05:01;;;;;;;24.82;14.93;;;;;;;5.10;78.40;96825.81;1690497;83;25836;-86
2021/10/13 02:07:31;;;;;;;20.43;14.45;;;;;;;5.10;78.50;96827.66;1746048;79;27612;-86
2021/10/13 02:10:05;;;;;;;26.15;15.95;;;;;;;5.10;78.54;96834.34;1779964;80;26351;-86
2021/10/13 02:12:34;;;;;;;26.68;16.57;;;;;;;5.10;78.60;96835.17;1779274;79;25333;-86
2021/10/13 02:15:04;;;;;;;29.37;17.80;;;;;;;5.11;78.67;96838.17;1779962;79;26637;-85
2021/10/13 02:17:35;;;;;;;25.15;15.80;;;;;;;5.11;78.71;96836.83;1765711;80;25712;-85
2021/10/13 02:20:03;;;;;;;23.65;15.25;;;;;;;5.11;78.76;96841.35;1777501;79;27319;-85
2021/10/13 02:22:32;;;;;;;24.95;15.63;;;;;;;5.12;78.73;96843.02;1761408;79;25689;-84
2021/10/13 02:24:59;;;;;;;25.30;15.80;;;;;;;5.16;78.76;96842.45;1753241;80;25936;-85
2021/10/13 02:27:43;;;;;;;27.73;16.52;;;;;;;5.18;78.78;96842.27;1749785;80;25752;-84
2021/10/13 02:30:11;;;;;;;25.43;16.20;;;;;;;5.21;78.79;96842.69;1761332;80;25735;-85
2021/10/13 02:32:38;;;;;;;27.52;16.12;;;;;;;5.24;78.75;96843.65;1779916;80;27352;-84
2021/10/13 02:35:06;;;;;;;23.15;15.93;;;;;;;5.27;78.73;96850.47;1779794;80;25730;-84
2021/10/13 02:37:33;;;;;;;27.15;16.57;;;;;;;5.30;78.72;96851.44;1758825;79;25682;-84
2021/10/13 02:40:00;;;;;;;31.45;18.87;;;;;;;5.32;78.70;96854.21;1781262;79;26632;-84
2021/10/13 02:42:27;;;;;;;28.15;18.45;;;;;;;5.36;78.68;96859.52;1781140;79;25660;-84
2021/10/13 02:44:53;;;;;;;29.65;19.95;;;;;;;5.38;78.62;96857.48;1781012;79;27338;-85
2021/10/13 02:47:32;;;;;;;29.25;19.65;;;;;;;5.41;78.62;96862.45;1781050;80;25734;-85
2021/10/13 02:50:27;;;;;;;28.77;20.05;;;;;;;5.40;78.59;96863.98;1780255;80;25852;-86
2021/10/13 02:53:04;;;;;;;29.72;19.32;;;;;;;5.39;78.61;96860.47;1767148;80;25807;-85
2021/10/13 02:55:42;;;;;;;28.65;19.27;;;;;;;5.40;78.63;96867.48;1770217;80;26353;-86
2021/10/13 02:58:20;;;;;;;30.20;18.57;;;;;;;5.40;78.66;96870.16;1756062;80;27375;-86
2021/10/13 03:00:50;;;;;;;34.90;22.25;;;;;;;5.39;78.74;96872.52;1758566;79;25778;-86
2021/10/13 03:03:31;;;;;;;33.48;23.47;;;;;;;5.39;78.73;96871.69;1765747;80;25840;-86
2021/10/13 03:06:01;;;;;;;24.60;17.02;;;;;;;5.39;78.87;96873.03;1736738;82;25768;-88
2021/10/13 03:08:27;;;;;;;21.25;14.65;;;;;;;5.33;78.78;96877.28;1744037;82;26042;-86
2021/10/13 03:10:57;;;;;;;19.95;11.05;;;;;;;5.34;78.76;96875.44;1739776;82;27338;-86
2021/10/13 03:13:28;;;;;;;13.32;8.05;;;;;;;5.34;78.72;96894.17;1727074;82;25699;-87
2021/10/13 03:15:56;;;;;;;11.97;8.23;;;;;;;5.30;78.64;96891.07;1743627;81;25755;-86
2021/10/13 03:18:25;;;;;;;15.03;8.03;;;;;;;5.28;78.68;96893.10;1744105;82;25676;-86
2021/10/13 03:20:53;;;;;;;11.10;5.87;;;;;;;5.24;78.61;96891.81;1743538;82;25879;-88
2021/10/13 03:23:21;;;;;;;8.88;6.10;;;;;;;5.26;78.62;96897.81;1739483;82;27400;-88
2021/10/13 03:25:51;;;;;;;7.53;5.25;;;;;;;5.27;78.54;96903.48;1744200;82;25860;-90
2021/10/13 03:28:17;;;;;;;6.35;4.47;;;;;;;5.26;78.55;96903.16;1743237;81;25720;-89
2021/10/13 03:30:44;;;;;;;8.10;4.08;;;;;;;5.27;78.46;96904.82;1744097;82;26048;-89
2021/10/13 03:33:12;;;;;;;8.03;3.58;;;;;;;5.27;78.46;96910.17;1739823;82;25805;-87
2021/10/13 03:35:39;;;;;;;8.78;3.98;;;;;;;5.26;78.39;96910.36;1727984;82;27320;-88
2021/10/13 03:38:06;;;;;;;8.13;3.52;;;;;;;5.26;78.42;96911.19;1765654;79;25723;-88
2021/10/13 03:40:35;;;;;;;10.05;4.12;;;;;;;5.25;78.44;96916.73;1763280;79;25884;-89
2021/10/13 03:43:02;;;;;;;6.85;4.17;;;;;;;5.25;78.47;96920.23;1777712;79;25752;-86
2021/10/13 03:45:29;;;;;;;14.63;3.70;;;;;;;5.29;78.48;96922.86;1777674;80;25781;-88
2021/10/13 03:47:56;;;;;;;7.95;4.35;;;;;;;5.28;78.51;96919.86;1777731;79;28172;-86
2021/10/13 03:50:23;;;;;;;6.40;3.92;;;;;;;5.28;78.48;96921.20;1754175;80;25729;-86
2021/10/13 03:52:50;;;;;;;8.25;4.40;;;;;;;5.30;78.45;96923.19;1768349;79;26963;-88
2021/10/13 03:55:19;;;;;;;9.85;5.35;;;;;;;5.31;78.44;96918.66;1758343;79;25671;-86
2021/10/13 03:57:46;;;;;;;11.83;6.20;;;;;;;5.32;78.47;96929.66;1756350;80;25791;-85
2021/10/13 04:00:17;;;;;;;9.20;5.30;;;;;;;5.32;78.49;96926.47;1747279;80;28228;-85
2021/10/13 04:02:44;;;;;;;8.65;5.28;;;;;;;5.32;78.47;96931.00;1767843;80;25323;-86
2021/10/13 04:05:12;;;;;;;5.75;4.42;;;;;;;5.24;78.44;96928.45;1766798;79;26366;-85
2021/10/13 04:07:39;;;;;;;6.60;4.10;;;;;;;5.21;78.50;96925.64;1776907;79;25724;-85
2021/10/13 04:10:09;;;;;;;5.92;4.17;;;;;;;5.21;78.53;96934.17;1777604;79;25786;-85
2021/10/13 04:12:37;;;;;;;8.18;5.25;;;;;;;5.17;78.49;96936.42;1765290;79;28125;-84
2021/10/13 04:15:07;;;;;;;6.20;5.03;;;;;;;5.19;78.55;96935.72;1776488;79;25966;-84
2021/10/13 04:17:34;;;;;;;7.72;5.10;;;;;;;5.21;78.55;96940.35;1741328;80;25771;-84
2021/10/13 04:20:08;;;;;;;9.35;5.67;;;;;;;5.22;78.57;96938.50;1756323;80;25772;-84
2021/10/13 04:22:35;;;;;;;10.03;5.42;;;;;;;5.23;78.65;96952.21;1750387;80;25701;-87
2021/10/13 04:25:01;;;;;;;7.15;5.87;;;;;;;5.18;78.70;96948.78;1756265;80;27349;-87
2021/10/13 04:27:28;;;;;;;10.05;5.85;;;;;;;5.15;78.72;96941.12;1756083;80;26565;-85
2021/10/13 04:29:55;;;;;;;7.22;5.47;;;;;;;5.17;78.80;96950.30;1756168;80;25705;-88
2021/10/13 04:32:21;;;;;;;8.25;5.65;;;;;;;5.17;78.85;96948.45;1756293;80;26300;-84
2021/10/13 04:34:49;;;;;;;5.87;5.28;;;;;;;5.17;78.89;96945.78;1754223;80;25657;-85
2021/10/13 04:37:16;;;;;;;6.75;4.87;;;;;;;5.19;78.86;96946.42;1747665;80;27373;-87
2021/10/13 04:39:43;;;;;;;7.72;5.20;;;;;;;5.22;78.89;96951.38;1746371;80;25724;-86
2021/10/13 04:42:10;;;;;;;6.92;5.25;;;;;;;5.20;78.93;96961.44;1745761;80;25465;-84
2021/10/13 04:44:36;;;;;;;10.08;5.85;;;;;;;5.17;78.94;96957.82;1756343;80;25708;-84
2021/10/13 04:47:03;;;;;;;8.98;5.55;;;;;;;5.17;78.95;96960.50;1756374;80;25771;-85
2021/10/13 04:49:30;;;;;;;8.85;6.15;;;;;;;5.12;78.97;96964.23;1756142;80;28213;-85
2021/10/13 04:51:57;;;;;;;8.68;5.70;;;;;;;5.13;79.09;96959.20;1755803;80;25949;-84
2021/10/13 04:54:23;;;;;;;11.10;7.40;;;;;;;5.19;79.15;96956.30;1739534;80;25257;-84
2021/10/13 04:56:50;;;;;;;12.53;8.10;;;;;;;5.23;79.09;96962.41;1762956;80;25793;-85
2021/10/13 04:59:17;;;;;;;10.45;6.92;;;;;;;5.24;79.09;96961.39;1764137;80;25715;-85
2021/10/13 05:01:43;;;;;;;12.10;6.97;;;;;;;5.21;79.10;96959.08;1756181;80;27345;-86
2021/10/13 05:04:10;;;;;;;10.40;7.20;;;;;;;5.22;79.17;96962.59;1746929;80;25801;-88
2021/10/13 05:06:37;;;;;;;12.07;6.90;;;;;;;5.24;79.24;96969.42;1756304;80;25734;-87
2021/10/13 05:09:03;;;;;;;11.18;6.58;;;;;;;5.20;79.22;96971.31;1755529;80;26329;-84
2021/10/13 05:11:30;;;;;;;10.10;7.25;;;;;;;5.22;79.31;96978.64;1726573;81;25772;-84
2021/10/13 05:13:56;;;;;;;12.07;8.83;;;;;;;5.25;79.42;96980.45;1754179;80;27313;-86
2021/10/13 05:16:23;;;;;;;12.15;7.78;;;;;;;5.23;79.43;96986.48;1755797;81;25779;-87
2021/10/13 05:18:50;;;;;;;12.03;8.38;;;;;;;5.27;79.50;96992.30;1756394;80;25301;-84
2021/10/13 05:21:16;;;;;;;14.55;9.88;;;;;;;5.26;79.46;96999.50;1756135;80;25901;-84
2021/10/13 05:23:43;;;;;;;15.40;8.93;;;;;;;5.26;79.48;97000.01;1750615;80;25676;-84
2021/10/13 05:26:09;;;;;;;14.87;10.20;;;;;;;5.26;79.56;97007.53;1729569;81;27602;-85
2021/10/13 05:28:36;;;;;;;20.10;12.15;;;;;;;5.25;79.64;97008.55;1749958;80;25530;-84
2021/10/13 05:31:03;;;;;;;14.50;9.65;;;;;;;5.25;79.57;97008.55;1734856;81;25708;-86
2021/10/13 05:33:29;;;;;;;12.50;8.43;;;;;;;5.21;79.53;97009.92;1738678;80;26156;-88
2021/10/13 05:35:56;;;;;;;10.23;7.53;;;;;;;5.20;79.55;97014.95;1755860;80;26463;-85
2021/10/13 05:38:22;;;;;;;8.40;6.62;;;;;;;5.22;79.58;97016.94;1756052;80;27440;-85
2021/10/13 05:40:49;;;;;;;10.72;6.87;;;;;;;5.22;79.46;97014.27;1756340;80;25739;-85
2021/10/13 05:43:16;;;;;;;10.72;6.85;;;;;;;5.25;79.40;97025.11;1756502;81;25680;-84
2021/10/13 05:45:42;;;;;;;11.38;7.00;;;;;;;5.25;79.35;97024.59;1756413;80;25780;-87
2021/10/13 05:48:09;;;;;;;10.80;7.20;;;;;;;5.28;79.36;97025.57;1756450;80;25804;-84
2021/10/13 05:50:35;;;;;;;11.50;7.53;;;;;;;5.29;79.27;97025.89;1756434;80;28360;-84
2021/10/13 05:53:02;;;;;;;13.72;9.88;;;;;;;5.30;79.13;97031.57;1756359;80;26302;-85
2021/10/13 05:55:28;;;;;;;28.25;18.70;;;;;;;5.31;79.05;97041.77;1756029;80;25747;-85
2021/10/13 05:57:55;;;;;;;20.05;14.43;;;;;;;5.33;79.06;97042.39;1756399;80;25769;-87
2021/10/13 06:00:26;;;;;;;14.90;11.53;;;;;;;5.31;79.04;97048.46;1754034;80;25740;-85
2021/10/13 06:02:50;;;;;;;14.00;9.93;;;;;;;5.32;78.97;97049.58;1745514;80;28204;-84
2021/10/13 06:05:16;;;;;;;11.85;9.18;;;;;;;5.30;78.92;97055.66;1747724;80;26020;-84
2021/10/13 06:07:43;;;;;;;12.47;8.78;;;;;;;5.27;78.86;97060.03;1744298;80;25744;-85
2021/10/13 06:10:10;;;;;;;13.78;9.30;;;;;;;5.23;78.94;97065.43;1735630;80;25824;-85
2021/10/13 06:12:37;;;;;;;13.18;8.23;;;;;;;5.20;78.95;97068.97;1757822;79;25734;-86
2021/10/13 06:15:05;;;;;;;10.15;8.25;;;;;;;5.19;79.13;97070.85;1772213;79;28298;-85
2021/10/13 06:17:34;;;;;;;11.63;8.25;;;;;;;5.18;79.24;97079.06;1775097;79;25738;-85
2021/10/13 06:20:01;;;;;;;10.80;8.73;;;;;;;5.19;79.33;97085.56;1757795;80;25265;-85
2021/10/13 06:22:28;;;;;;;9.68;7.60;;;;;;;5.24;79.34;97081.81;1777777;79;26534;-85
2021/10/13 06:24:56;;;;;;;11.93;8.90;;;;;;;5.30;79.24;97089.11;1767227;79;25675;-86
2021/10/13 06:27:24;;;;;;;21.05;13.15;;;;;;;5.34;79.14;97091.72;1761454;79;28436;-84
2021/10/13 06:29:51;;;;;;;20.82;14.80;;;;;;;5.38;79.03;97096.20;1774702;79;26504;-84
2021/10/13 06:32:18;;;;;;;26.25;18.25;;;;;;;5.41;78.92;97106.54;1775210;79;25818;-85
2021/10/13 06:34:44;;;;;;;23.10;15.05;;;;;;;5.38;78.84;97108.24;1777469;79;25722;-86
2021/10/13 06:37:11;;;;;;;23.52;16.77;;;;;;;5.36;78.87;97105.75;1759275;79;25782;-85
2021/10/13 06:39:37;;;;;;;19.23;15.53;;;;;;;5.39;78.96;97118.77;1786194;78;27409;-85
2021/10/13 06:42:05;;;;;;;17.92;13.03;;;;;;;5.41;78.93;97122.09;1787166;80;25871;-84
2021/10/13 06:44:31;;;;;;;22.32;15.25;;;;;;;5.35;78.89;97119.31;1787268;78;25726;-84
2021/10/13 06:46:58;;;;;;;22.05;17.02;;;;;;;5.34;79.08;97125.17;1787100;78;25845;-85
2021/10/13 06:49:25;;;;;;;24.60;19.07;;;;;;;5.36;79.11;97128.50;1786988;78;25766;-87
2021/10/13 06:51:51;;;;;;;21.93;17.98;;;;;;;5.38;79.14;97141.20;1782715;78;28426;-85
2021/10/13 06:54:18;;;;;;;22.67;17.37;;;;;;;5.39;79.10;97138.84;1775865;78;25769;-85
2021/10/13 06:56:44;;;;;;;22.05;15.28;;;;;;;5.43;79.06;97144.13;1786552;79;25789;-86
2021/10/13 06:59:11;;;;;;;16.57;12.68;;;;;;;5.43;79.02;97149.48;1787329;78;25781;-85
2021/10/13 07:01:37;;;;;;;16.80;10.93;;;;;;;5.34;78.90;97146.58;1780297;78;25686;-85
2021/10/13 07:04:04;;;;;;;16.05;10.75;;;;;;;5.25;78.87;97157.57;1777165;78;27520;-84
2021/10/13 07:06:31;;;;;;;11.83;8.58;;;;;;;5.19;78.83;97163.17;1780677;80;25760;-86
2021/10/13 07:08:57;;;;;;;10.60;8.13;;;;;;;5.11;78.73;97158.38;1787026;78;25782;-86
2021/10/13 07:11:24;;;;;;;12.73;8.80;;;;;;;5.00;78.64;97164.52;1781675;80;25798;-86
2021/10/13 07:13:51;;;;;;;12.85;9.90;;;;;;;4.95;78.80;97174.91;1774946;80;25809;-86
2021/10/13 07:16:17;;;;;;;12.35;9.93;;;;;;;4.99;79.02;97168.20;1787321;80;28388;-86
2021/10/13 07:18:44;;;;;;;12.00;9.88;;;;;;;5.03;79.03;97175.36;1785242;80;25940;-86
2021/10/13 07:21:11;;;;;;;11.33;8.08;;;;;;;5.02;79.10;97178.55;1785849;78;25765;-86
2021/10/13 07:23:37;;;;;;;9.95;8.18;;;;;;;5.05;79.09;97178.69;1784220;80;25770;-84
2021/10/13 07:26:04;;;;;;;11.60;8.40;;;;;;;5.05;78.93;97182.70;1787258;80;25712;-87
2021/10/13 07:28:31;;;;;;;8.38;7.05;;;;;;;5.07;78.97;97185.50;1775268;78;27576;-83
2021/10/13 07:30:57;;;;;;;8.28;5.45;;;;;;;5.08;78.80;97184.48;1786459;80;26336;-84
2021/10/13 07:33:24;;;;;;;9.63;6.75;;;;;;;5.04;78.62;97189.06;1781920;80;25250;-86
2021/10/13 07:35:50;;;;;;;7.78;5.75;;;;;;;5.04;78.70;97196.59;1770264;80;25788;-84
2021/10/13 07:38:17;;;;;;;7.25;5.03;;;;;;;5.05;78.86;97192.90;1786870;78;25955;-85
2021/10/13 07:40:45;;;;;;;9.25;5.75;;;;;;;5.05;78.75;97198.76;1787012;80;27459;-83
2021/10/13 07:43:12;;;;;;;9.78;6.70;;;;;;;5.08;78.56;97197.03;1786964;78;25746;-85
2021/10/13 07:45:42;;;;;;;6.83;5.85;;;;;;;5.12;78.59;97198.34;1786976;80;25806;-88
2021/10/13 07:48:08;;;;;;;7.12;6.00;;;;;;;5.10;78.66;97199.02;1776108;78;26375;-86
2021/10/13 07:50:35;;;;;;;5.33;4.80;;;;;;;5.07;78.67;97193.52;1731041;81;25695;-84
2021/10/13 07:53:02;;;;;;;7.70;5.12;;;;;;;5.11;78.69;97190.49;1786883;78;27323;-86
2021/10/13 07:55:29;;;;;;;5.87;4.90;;;;;;;5.21;78.81;97190.55;1786850;78;25760;-83
2021/10/13 07:57:55;;;;;;;7.47;5.65;;;;;;;5.33;78.75;97190.42;1786419;80;25255;-83
2021/10/13 08:00:22;;;;;;;5.65;5.05;;;;;;;5.40;78.96;97194.55;1787048;79;25917;-84
2021/10/13 08:02:49;;;;;;;7.03;5.37;;;;;;;5.40;78.91;97186.52;1787242;79;25833;-86
2021/10/13 08:05:18;;;;;;;6.87;6.10;;;;;;;5.43;78.70;97184.82;1754923;80;27383;-84
2021/10/13 08:07:46;;;;;;;10.30;7.22;;;;;;;5.47;78.64;97186.59;1776230;80;25757;-84
2021/10/13 08:10:14;;;;;;;8.80;7.40;;;;;;;5.44;78.55;97187.79;1787101;78;25959;-84
2021/10/13 08:12:40;;;;;;;9.33;8.33;;;;;;;5.48;78.48;97188.27;1787124;80;25698;-85
2021/10/13 08:15:09;;;;;;;12.20;9.30;;;;;;;5.40;78.21;97189.20;1787196;78;25758;-87
2021/10/13 08:17:36;;;;;;;12.35;8.58;;;;;;;5.43;78.33;97192.31;1787277;78;28209;-86
2021/10/13 08:20:05;;;;;;;20.05;14.55;;;;;;;5.52;78.34;97198.94;1753632;80;25753;-85
2021/10/13 08:22:32;;;;;;;16.17;12.28;;;;;;;5.57;78.27;97194.67;1787093;78;25765;-85
2021/10/13 08:24:58;;;;;;;11.30;10.00;;;;;;;5.64;78.23;97198.80;1777737;78;25654;-86
2021/10/13 08:27:25;;;;;;;15.00;11.60;;;;;;;5.67;78.33;97197.09;1765436;78;25803;-84
2021/10/13 08:29:52;;;;;;;15.53;11.55;;;;;;;5.75;78.41;97201.00;1786659;78;28292;-86
2021/10/13 08:32:18;;;;;;;11.05;9.75;;;;;;;5.78;78.00;97197.95;1784791;78;25806;-85
2021/10/13 08:34:45;;;;;;;13.20;10.13;;;;;;;5.82;77.86;97195.20;1772224;80;25780;-84
2021/10/13 08:37:12;;;;;;;14.10;10.38;;;;;;;5.86;77.83;97195.67;1785390;78;25855;-87
2021/10/13 08:39:38;;;;;;;13.05;9.48;;;;;;;5.90;77.83;97197.84;1781248;79;25706;-84
2021/10/13 08:42:05;;;;;;;11.75;9.80;;;;;;;5.93;77.71;97196.61;1777227;79;28180;-86
2021/10/13 08:44:33;;;;;;;11.85;10.23;;;;;;;5.93;77.50;97201.46;1777639;80;25646;-84
2021/10/13 08:47:00;;;;;;;12.00;10.25;;;;;;;5.91;77.46;97200.84;1759508;79;25783;-85
2021/10/13 08:49:27;;;;;;;13.75;9.93;;;;;;;5.95;77.48;97207.47;1769485;79;25730;-83
2021/10/13 08:51:54;;;;;;;11.03;9.30;;;;;;;6.03;77.56;97210.57;1777340;79;25748;-84
2021/10/13 08:54:21;;;;;;;15.05;9.78;;;;;;;6.05;77.36;97218.72;1777808;79;27394;-86
2021/10/13 08:56:48;;;;;;;12.35;7.80;;;;;;;6.09;77.23;97223.20;1754726;80;25869;-85
2021/10/13 08:59:43;;;;;;;11.35;7.85;;;;;;;6.13;77.08;97220.48;1777831;80;25774;-84
2021/10/13 09:02:12;;;;;;;8.68;6.92;;;;;;;6.20;76.87;97227.24;1759364;79;26477;-84
2021/10/13 09:04:38;;;;;;;10.13;7.33;;;;;;;6.30;76.72;97228.60;1761438;79;25764;-86
2021/10/13 09:07:06;;;;;;;7.10;5.60;;;;;;;6.43;76.50;97229.27;1756247;80;28119;-85
2021/10/13 09:09:34;;;;;;;11.43;7.95;;;;;;;6.56;75.96;97217.84;1756263;80;26675;-83
2021/10/13 09:12:01;;;;;;;20.12;13.43;;;;;;;6.64;75.90;97217.20;1756411;80;25688;-85
2021/10/13 09:14:31;;;;;;;14.47;9.53;;;;;;;6.91;76.16;97209.41;1756271;80;26371;-85
2021/10/13 09:17:10;;;;;;;13.55;8.43;;;;;;;7.13;75.70;97215.90;1756289;80;25751;-84
2021/10/13 09:19:43;;;;;;;9.58;7.80;;;;;;;7.19;75.22;97212.97;1756154;80;28230;-84
2021/10/13 09:22:16;;;;;;;12.80;9.05;;;;;;;7.21;74.86;97217.63;1734973;80;26588;-84
2021/10/13 09:24:48;;;;;;;9.40;6.72;;;;;;;7.15;74.71;97218.39;1756366;80;25524;-86
2021/10/13 09:27:28;;;;;;;9.98;6.50;;;;;;;7.06;74.56;97218.22;1743798;80;25692;-84
2021/10/13 09:30:10;;;;;;;9.15;6.45;;;;;;;7.00;74.44;97222.53;1756355;80;25799;-83
2021/10/13 09:32:44;;;;;;;9.23;6.80;;;;;;;6.88;74.54;97228.89;1756628;80;27392;-85
2021/10/13 09:35:12;;;;;;;9.30;7.12;;;;;;;6.85;75.04;97229.81;1736812;80;26435;-83
2021/10/13 09:37:48;;;;;;;11.35;7.03;;;;;;;6.76;74.91;97230.97;1756277;80;25779;-84
2021/10/13 09:40:34;;;;;;;11.40;7.47;;;;;;;6.73;74.82;97221.45;1761836;80;26490;-85
2021/10/13 09:43:01;;;;;;;9.15;6.90;;;;;;;6.75;75.03;97232.82;1764756;79;25747;-83
2021/10/13 09:45:34;;;;;;;11.83;7.00;;;;;;;6.75;75.14;97235.50;1764829;79;28371;-85
2021/10/13 09:48:05;;;;;;;9.40;6.58;;;;;;;6.76;75.14;97235.80;1762904;81;26260;-84
2021/10/13 09:50:50;;;;;;;9.43;7.33;;;;;;;6.78;75.09;97233.75;1762574;81;25802;-83
2021/10/13 09:53:27;;;;;;;7.25;5.92;;;;;;;6.88;75.19;97238.28;1748230;81;26700;-85
2021/10/13 09:55:54;;;;;;;6.10;5.28;;;;;;;6.94;74.77;97241.23;1749337;80;25842;-87
2021/10/13 09:58:24;;;;;;;7.25;5.33;;;;;;;7.01;74.51;97239.42;1735013;81;27347;-85
2021/10/13 10:00:54;;;;;;;9.78;5.20;;;;;;;7.02;74.17;97243.27;1765142;79;25632;-85
2021/10/13 10:03:22;;;;;;;9.43;6.83;;;;;;;7.05;73.88;97240.72;1745821;80;25296;-84
2021/10/13 10:05:49;;;;;;;8.65;6.60;;;;;;;7.09;73.74;97240.66;1760129;80;25688;-85
2021/10/13 10:08:17;;;;;;;7.20;5.92;;;;;;;7.12;74.04;97238.42;1760151;80;25751;-86
2021/10/13 10:11:07;;;;;;;6.22;5.35;;;;;;;7.13;73.58;97245.42;1760184;80;27377;-83
2021/10/13 10:13:41;;;;;;;7.25;5.75;;;;;;;7.16;73.33;97236.99;1759791;80;25743;-85
2021/10/13 10:16:10;;;;;;;10.10;6.10;;;;;;;7.19;73.29;97238.47;1759473;80;25723;-88
2021/10/13 10:18:39;;;;;;;9.45;5.92;;;;;;;7.24;73.11;97244.09;1756468;80;26327;-83
2021/10/13 10:21:24;;;;;;;11.50;6.62;;;;;;;7.20;72.79;97248.18;1745229;80;25258;-81
2021/10/13 10:23:55;;;;;;;5.85;5.22;;;;;;;7.19;73.26;97250.55;1760147;80;27230;-85
2021/10/13 10:26:32;;;;;;;7.03;5.62;;;;;;;7.20;72.87;97253.04;1759628;81;25257;-86
2021/10/13 10:29:03;;;;;;;7.92;5.22;;;;;;;7.19;72.72;97247.35;1759080;80;25286;-83
2021/10/13 10:31:36;;;;;;;7.87;5.72;;;;;;;7.22;72.65;97248.83;1760204;80;26811;-84
2021/10/13 10:34:15;;;;;;;7.87;5.60;;;;;;;7.27;72.67;97252.25;1759104;80;26312;-84
2021/10/13 10:36:50;;;;;;;8.00;6.30;;;;;;;7.25;72.64;97252.44;1759397;80;26846;-89
2021/10/13 10:39:20;;;;;;;8.00;5.85;;;;;;;7.21;72.88;97256.56;1738376;80;25825;-83
2021/10/13 10:41:53;;;;;;;8.55;5.75;;;;;;;7.12;72.80;97247.82;1731140;82;25921;-83
2021/10/13 10:44:44;;;;;;;7.42;5.80;;;;;;;7.11;72.96;97251.52;1756493;80;25825;-83
2021/10/13 10:47:15;;;;;;;6.00;4.65;;;;;;;7.13;72.97;97256.67;1760194;80;25768;-83
2021/10/13 10:49:50;;;;;;;6.22;5.37;;;;;;;7.12;72.89;97246.98;1759966;80;27352;-82
2021/10/13 10:52:22;;;;;;;8.20;6.17;;;;;;;7.04;72.63;97252.47;1750212;80;25747;-83
2021/10/13 10:55:07;;;;;;;7.42;6.08;;;;;;;6.99;72.67;97254.41;1760107;80;25780;-82
2021/10/13 10:57:47;;;;;;;9.08;6.28;;;;;;;6.97;72.65;97254.28;1760260;80;26567;-85
2021/10/13 11:00:28;;;;;;;11.53;7.87;;;;;;;6.96;72.80;97251.27;1739329;80;25758;-86
2021/10/13 11:03:22;;;;;;;15.00;8.63;;;;;;;7.03;72.90;97261.55;1751128;80;28162;-83
2021/10/13 11:05:49;;;;;;;13.28;8.18;;;;;;;6.99;72.87;97257.60;1760108;80;25865;-82
2021/10/13 11:08:16;;;;;;;13.32;7.85;;;;;;;6.88;73.04;97260.80;1760160;80;25633;-84
2021/10/13 11:10:43;;;;;;;10.70;8.33;;;;;;;6.84;73.15;97266.54;1753742;80;26659;-83
2021/10/13 11:13:10;;;;;;;12.55;8.48;;;;;;;6.83;73.27;97272.92;1730304;81;25827;-82
2021/10/13 11:15:38;;;;;;;10.08;7.60;;;;;;;6.80;73.40;97268.44;1730046;80;27366;-82
2021/10/13 11:18:17;;;;;;;11.15;8.35;;;;;;;6.68;73.42;97273.99;1744568;80;26439;-84
2021/10/13 11:20:45;;;;;;;13.05;8.80;;;;;;;6.62;73.66;97267.55;1759438;80;25876;-83
2021/10/13 11:23:12;;;;;;;11.38;8.10;;;;;;;6.58;73.87;97279.67;1760102;80;26511;-83
2021/10/13 11:25:41;;;;;;;13.78;9.33;;;;;;;6.57;74.04;97280.69;1759858;80;25859;-83
2021/10/13 11:28:11;;;;;;;9.23;6.97;;;;;;;6.54;74.07;97275.69;1756049;80;27424;-84
2021/10/13 11:30:45;;;;;;;10.05;7.55;;;;;;;6.45;73.91;97283.03;1759977;80;25707;-83
2021/10/13 11:33:15;;;;;;;11.25;7.58;;;;;;;6.37;74.16;97275.61;1759744;80;26430;-84
2021/10/13 11:35:48;;;;;;;11.40;7.15;;;;;;;6.37;74.36;97290.36;1759176;80;25847;-84
2021/10/13 11:38:20;;;;;;;12.40;8.00;;;;;;;6.27;74.37;97289.83;1758499;80;26065;-83
2021/10/13 11:40:48;;;;;;;8.30;6.42;;;;;;;6.23;74.62;97299.25;1759278;80;27376;-85
2021/10/13 11:43:18;;;;;;;8.05;5.78;;;;;;;5.98;74.06;97291.50;1759180;80;25778;-84
2021/10/13 11:45:53;;;;;;;8.65;6.35;;;;;;;5.71;74.24;97284.89;1759285;80;25728;-85